createdAt,value
2018-11-04T00:01:09.429Z,95.90
2018-11-04T00:03:43.760Z,95.90
2018-11-04T00:06:18.731Z,95.90
2018-11-04T00:08:54.216Z,95.90
2018-11-04T00:11:28.700Z,96.00
2018-11-04T00:14:04.580Z,96.10
2018-11-04T00:16:39.620Z,96.30
2018-11-04T00:19:14.906Z,96.20
2018-11-04T00:21:50.346Z,96.10
2018-11-04T00:24:25.517Z,96.30
2018-11-04T00:27:00.500Z,96.60
2018-11-04T00:29:35.684Z,96.30
2018-11-04T00:32:10.204Z,96.50
2018-11-04T00:34:45.247Z,96.50
2018-11-04T00:37:19.699Z,96.70
2018-11-04T00:39:54.909Z,96.70
2018-11-04T00:42:30.633Z,96.70
2018-11-04T00:45:07.345Z,96.50
2018-11-04T00:47:41.706Z,96.40
2018-11-04T00:50:21.690Z,96.50
2018-11-04T00:52:56.028Z,96.60
2018-11-04T00:55:30.415Z,96.90
2018-11-04T00:58:04.713Z,97.10
2018-11-04T01:00:39.032Z,96.90
2018-11-04T01:03:24.623Z,96.80
2018-11-04T01:05:59.604Z,96.70
2018-11-04T01:08:34.835Z,96.60
2018-11-04T01:11:09.199Z,97.00
2018-11-04T01:13:44.233Z,97.00
2018-11-04T01:16:19.250Z,96.80
2018-11-04T01:18:53.664Z,97.00
2018-11-04T01:21:28.084Z,97.00
2018-11-04T01:24:03.735Z,96.90
2018-11-04T01:26:38.064Z,96.90
2018-11-04T01:29:13.125Z,97.00
2018-11-04T01:31:47.527Z,97.20
2018-11-04T01:34:22.037Z,97.10
2018-11-04T01:36:56.563Z,97.20
2018-11-04T01:39:32.068Z,97.20
2018-11-04T01:42:07.407Z,97.10
2018-11-04T01:44:42.007Z,97.30
2018-11-04T01:47:17.243Z,97.10
2018-11-04T01:49:51.789Z,97.20
2018-11-04T01:52:26.752Z,97.20
2018-11-04T01:55:01.887Z,97.30
2018-11-04T01:57:36.356Z,97.20
2018-11-04T02:00:13.419Z,97.20
2018-11-04T02:02:48.299Z,97.10
2018-11-04T02:05:23.566Z,97.20
2018-11-04T02:07:57.883Z,97.50
2018-11-04T02:10:32.743Z,97.60
2018-11-04T02:13:07.801Z,97.60
2018-11-04T02:15:43.544Z,97.40
2018-11-04T02:18:18.783Z,97.70
2018-11-04T02:20:53.259Z,97.80
2018-11-04T02:23:28.607Z,97.80
2018-11-04T02:26:03.036Z,97.70
2018-11-04T02:28:38.192Z,97.60
2018-11-04T02:31:12.701Z,97.80
2018-11-04T02:33:47.153Z,97.90
2018-11-04T02:36:22.559Z,98.20
2018-11-04T02:38:57.488Z,98.20
2018-11-04T02:41:32.380Z,98.20
2018-11-04T02:44:07.399Z,98.10
2018-11-04T02:46:42.635Z,97.90
2018-11-04T02:49:17.067Z,98.10
2018-11-04T02:51:52.016Z,98.10
2018-11-04T02:54:26.579Z,98.10
2018-11-04T02:57:01.206Z,98.00
2018-11-04T02:59:35.701Z,98.10
2018-11-04T03:02:10.946Z,98.00
2018-11-04T03:04:46.065Z,98.00
2018-11-04T03:07:21.238Z,97.90
2018-11-04T03:09:56.303Z,98.10
2018-11-04T03:12:30.684Z,98.10
2018-11-04T03:15:05.185Z,97.80
2018-11-04T03:17:40.210Z,98.00
2018-11-04T03:20:14.571Z,98.20
2018-11-04T03:22:50.156Z,98.20
2018-11-04T03:25:24.591Z,98.30
2018-11-04T03:27:59.783Z,98.30
2018-11-04T03:30:34.247Z,98.30
2018-11-04T03:33:09.307Z,98.50
2018-11-04T03:35:43.867Z,98.70
2018-11-04T03:38:18.342Z,99.00
2018-11-04T03:40:52.734Z,98.90
2018-11-04T03:43:27.712Z,98.90
2018-11-04T03:46:02.277Z,98.90
2018-11-04T03:48:37.628Z,98.70
2018-11-04T03:51:14.487Z,98.60
2018-11-04T03:53:48.884Z,98.60
2018-11-04T03:56:23.243Z,98.30
2018-11-04T03:58:57.759Z,98.20
2018-11-04T04:01:32.327Z,98.20
2018-11-04T04:04:07.632Z,98.40
2018-11-04T04:06:42.788Z,98.40
2018-11-04T04:09:17.939Z,98.40
2018-11-04T04:11:52.481Z,98.40
2018-11-04T04:14:26.807Z,98.40
2018-11-04T04:17:01.739Z,98.40
2018-11-04T04:19:36.063Z,98.40
2018-11-04T04:22:10.513Z,98.40
2018-11-04T04:24:45.672Z,98.20
2018-11-04T04:27:20.155Z,98.20
2018-11-04T04:29:55.460Z,98.30
2018-11-04T04:32:30.154Z,98.30
2018-11-04T04:35:05.126Z,98.30
2018-11-04T04:37:40.847Z,98.40
2018-11-04T04:40:16.139Z,98.40
2018-11-04T04:42:51.222Z,98.30
2018-11-04T04:45:25.580Z,98.40
2018-11-04T04:48:00.759Z,98.40
2018-11-04T04:50:36.200Z,98.40
2018-11-04T04:53:10.935Z,98.30
2018-11-04T04:55:45.468Z,98.50
2018-11-04T04:58:21.120Z,98.40
2018-11-04T05:00:55.644Z,98.70
2018-11-04T05:03:30.146Z,98.40
2018-11-04T05:06:05.677Z,98.20
2018-11-04T05:08:41.068Z,98.20
2018-11-04T05:11:17.750Z,98.40
2018-11-04T05:13:53.400Z,98.60
2018-11-04T05:16:28.631Z,98.70
2018-11-04T05:19:03.811Z,98.60
2018-11-04T05:21:38.084Z,98.50
2018-11-04T05:24:13.259Z,98.80
2018-11-04T05:26:47.758Z,98.70
2018-11-04T05:29:22.702Z,98.60
2018-11-04T05:31:57.649Z,98.50
2018-11-04T05:34:32.366Z,98.70
2018-11-04T05:37:06.844Z,98.60
2018-11-04T05:39:41.200Z,98.30
2018-11-04T05:42:16.931Z,98.30
2018-11-04T05:44:51.291Z,98.50
2018-11-04T05:47:26.263Z,98.40
2018-11-04T05:50:01.427Z,98.50
2018-11-04T05:52:36.816Z,98.50
2018-11-04T05:55:11.325Z,98.60
2018-11-04T05:57:46.463Z,98.60
2018-11-04T06:00:20.814Z,98.70
2018-11-04T06:02:55.391Z,98.90
2018-11-04T06:05:30.863Z,98.90
2018-11-04T06:08:05.835Z,98.80
2018-11-04T06:10:40.868Z,98.80
2018-11-04T06:13:15.407Z,98.90
2018-11-04T06:15:50.855Z,98.90
2018-11-04T06:18:26.627Z,98.70
2018-11-04T06:21:02.059Z,98.80
2018-11-04T06:23:37.227Z,98.60
2018-11-04T06:26:11.803Z,98.60
2018-11-04T06:28:46.933Z,98.90
2018-11-04T06:31:22.119Z,98.80
2018-11-04T06:33:56.523Z,98.70
2018-11-04T06:36:30.980Z,98.70
2018-11-04T06:39:07.212Z,98.50
2018-11-04T06:41:41.583Z,98.50
2018-11-04T06:44:16.779Z,98.50
2018-11-04T06:46:52.168Z,98.40
2018-11-04T06:49:26.935Z,98.40
2018-11-04T06:52:01.331Z,98.40
2018-11-04T06:54:35.852Z,98.30
2018-11-04T06:57:10.839Z,98.40
2018-11-04T06:59:45.530Z,98.40
2018-11-04T07:02:19.956Z,98.40
2018-11-04T07:04:55.223Z,98.40
2018-11-04T07:07:29.994Z,98.30
2018-11-04T07:10:08.296Z,98.50
2018-11-04T07:12:50.909Z,98.70
2018-11-04T07:15:25.968Z,98.80
2018-11-04T07:18:01.551Z,99.10
2018-11-04T07:20:42.131Z,99.30
2018-11-04T07:23:17.739Z,99.10
2018-11-04T07:25:52.212Z,99.10
2018-11-04T07:34:33.870Z,99.50
2018-11-04T07:37:08.628Z,99.30
2018-11-04T07:39:43.950Z,99.40
2018-11-04T07:42:20.101Z,99.20
2018-11-04T07:44:57.324Z,99.20
2018-11-04T07:47:33.112Z,99.20
2018-11-04T07:50:13.658Z,99.10
2018-11-04T07:52:50.673Z,98.90
2018-11-04T07:55:25.727Z,98.80
2018-11-04T07:58:00.601Z,98.90
2018-11-04T08:00:42.444Z,98.90
2018-11-04T08:03:17.412Z,98.80
2018-11-04T08:05:54.504Z,98.80
2018-11-04T08:08:30.792Z,98.80
2018-11-04T08:11:05.851Z,98.90
2018-11-04T08:13:40.534Z,98.80
2018-11-04T08:16:15.738Z,98.90
2018-11-04T08:18:51.238Z,98.80
2018-11-04T08:21:26.780Z,98.80
2018-11-04T08:24:02.306Z,98.70
2018-11-04T08:26:37.439Z,98.80
2018-11-04T08:29:12.457Z,98.90
2018-11-04T08:31:47.589Z,98.80
2018-11-04T08:34:22.275Z,98.70
2018-11-04T08:36:56.715Z,98.80
2018-11-04T08:39:32.091Z,98.60
2018-11-04T08:42:07.492Z,98.80
2018-11-04T08:44:42.048Z,98.80
2018-11-04T08:47:17.836Z,98.70
2018-11-04T08:49:52.864Z,98.70
2018-11-04T08:52:27.580Z,98.80
2018-11-04T08:55:02.598Z,98.80
2018-11-04T08:59:02.105Z,98.80
2018-11-04T09:01:36.522Z,98.70
2018-11-04T09:04:11.875Z,99.30
2018-11-04T09:06:47.206Z,99.40
2018-11-04T09:09:22.596Z,99.40
2018-11-04T09:11:57.279Z,99.10
2018-11-04T09:14:39.176Z,99.10
2018-11-04T09:17:14.742Z,99.20
2018-11-04T09:19:49.456Z,99.30
2018-11-04T09:22:24.735Z,99.20
2018-11-04T09:24:59.746Z,99.10
2018-11-04T09:27:35.527Z,98.90
2018-11-04T09:30:13.629Z,98.70
2018-11-04T09:32:48.988Z,98.50
2018-11-04T09:35:24.364Z,98.30
2018-11-04T09:38:05.871Z,98.30
2018-11-04T09:40:41.508Z,98.30
2018-11-04T09:43:16.728Z,98.50
2018-11-04T09:45:51.380Z,98.40
2018-11-04T09:48:26.504Z,98.40
2018-11-04T09:51:01.949Z,98.40
2018-11-04T09:53:37.004Z,98.80
2018-11-04T09:56:14.275Z,98.70
2018-11-04T09:58:49.528Z,98.60
2018-11-04T10:01:24.298Z,99.10
2018-11-04T10:03:59.030Z,98.90
2018-11-04T10:06:34.231Z,98.80
2018-11-04T10:09:10.737Z,98.90
2018-11-04T10:11:45.871Z,99.20
2018-11-04T10:14:20.611Z,99.40
2018-11-04T10:16:56.060Z,99.20
2018-11-04T10:19:30.975Z,99.60
2018-11-04T10:22:06.115Z,99.30
2018-11-04T10:24:43.420Z,99.90
2018-11-04T10:27:18.908Z,99.90
2018-11-04T10:29:54.560Z,99.70
2018-11-04T10:32:29.139Z,99.20
2018-11-04T10:35:05.264Z,98.80
2018-11-04T10:37:40.588Z,98.40
2018-11-04T10:40:15.606Z,98.10
2018-11-04T10:42:50.753Z,98.40
2018-11-04T10:45:26.303Z,98.40
2018-11-04T10:48:02.221Z,98.40
2018-11-04T10:53:18.428Z,98.20
2018-11-04T10:55:53.430Z,98.00
2018-11-04T10:58:28.105Z,98.50
2018-11-04T11:01:08.830Z,98.40
2018-11-04T11:03:44.455Z,98.20
2018-11-04T11:06:19.598Z,98.30
2018-11-04T11:08:57.023Z,98.30
2018-11-04T11:12:56.330Z,98.30
2018-11-04T11:15:31.176Z,98.20
2018-11-04T11:18:06.432Z,98.50
2018-11-04T11:23:24.515Z,98.20
2018-11-04T11:25:59.381Z,98.10
2018-11-04T11:28:35.035Z,98.00
2018-11-04T11:31:10.532Z,97.80
2018-11-04T11:33:52.957Z,97.60
2018-11-04T11:36:28.169Z,97.70
2018-11-04T11:39:02.829Z,97.90
2018-11-04T11:41:37.795Z,97.80
2018-11-04T11:44:12.970Z,97.60
2018-11-04T11:46:48.514Z,97.40
2018-11-04T11:49:25.104Z,97.50
2018-11-04T11:52:00.672Z,97.70
2018-11-04T11:54:35.431Z,98.00
2018-11-04T11:57:09.923Z,97.70
2018-11-04T11:59:45.418Z,97.60
2018-11-04T12:02:20.711Z,97.70
2018-11-04T12:04:55.073Z,98.00
2018-11-04T12:07:30.302Z,98.10
2018-11-04T12:10:07.042Z,98.50
2018-11-04T12:12:42.222Z,98.70
2018-11-04T12:15:16.596Z,98.30
2018-11-04T12:17:51.706Z,98.10
2018-11-04T12:20:26.130Z,98.10
2018-11-04T12:23:02.012Z,98.00
2018-11-04T12:25:36.479Z,97.80
2018-11-04T12:28:11.604Z,98.00
2018-11-04T12:30:46.030Z,97.90
2018-11-04T12:33:20.371Z,97.80
2018-11-04T12:35:54.871Z,97.90
2018-11-04T12:38:29.975Z,98.20
2018-11-04T12:41:04.210Z,98.30
2018-11-04T12:43:39.159Z,98.20
2018-11-04T12:46:19.988Z,98.00
2018-11-04T12:48:55.763Z,98.10
2018-11-04T12:51:30.877Z,98.00
2018-11-04T12:56:36.156Z,98.00
2018-11-04T12:59:11.300Z,97.70
2018-11-04T13:01:45.927Z,97.90
2018-11-04T13:11:19.623Z,98.10
2018-11-04T13:13:54.079Z,99.30
2018-11-04T13:16:29.160Z,99.20
2018-11-04T13:19:04.631Z,98.70
2018-11-04T13:21:38.991Z,98.30
2018-11-04T13:24:14.275Z,98.20
2018-11-04T13:26:49.133Z,98.00
2018-11-04T13:29:24.096Z,98.20
2018-11-04T13:31:58.599Z,97.90
2018-11-04T13:34:32.987Z,97.80
2018-11-04T13:37:07.704Z,97.70
2018-11-04T13:39:42.093Z,97.90
2018-11-04T13:42:17.259Z,98.00
2018-11-04T13:44:51.611Z,97.80
2018-11-04T13:47:26.520Z,97.60
2018-11-04T13:50:01.584Z,97.50
2018-11-04T13:52:36.619Z,97.40
2018-11-04T13:55:11.092Z,97.30
2018-11-04T13:57:46.247Z,97.40
2018-11-04T14:00:20.662Z,97.30
2018-11-04T14:02:55.996Z,97.20
2018-11-04T14:05:31.421Z,97.40
2018-11-04T14:08:05.958Z,97.40
2018-11-04T14:10:41.421Z,97.70
2018-11-04T14:13:15.913Z,97.60
2018-11-04T14:15:52.348Z,97.80
2018-11-04T14:18:27.731Z,97.90
2018-11-04T14:21:02.391Z,98.00
2018-11-04T14:23:38.118Z,98.10
2018-11-04T14:26:12.651Z,97.80
2018-11-04T14:28:47.884Z,97.70
2018-11-04T14:31:23.415Z,97.70
2018-11-04T14:33:57.700Z,97.80
2018-11-04T14:36:32.547Z,97.70
2018-11-04T14:39:08.191Z,97.50
2018-11-04T14:41:42.619Z,97.60
2018-11-04T14:44:17.816Z,97.60
2018-11-04T14:46:52.869Z,97.40
2018-11-04T14:49:28.191Z,97.70
2018-11-04T14:52:03.556Z,97.70
2018-11-04T14:54:38.085Z,97.70
2018-11-04T14:57:13.907Z,97.70
2018-11-04T14:59:48.397Z,97.80
2018-11-04T15:02:22.892Z,97.90
2018-11-04T15:04:57.236Z,98.10
2018-11-04T15:07:32.566Z,98.60
2018-11-04T15:10:09.612Z,98.30
2018-11-04T15:12:44.459Z,98.30
2018-11-04T15:15:19.035Z,98.50
2018-11-04T15:18:01.857Z,98.40
2018-11-04T15:20:36.151Z,98.10
2018-11-04T15:23:13.573Z,97.80
2018-11-04T15:25:48.037Z,97.70
2018-11-04T15:28:23.372Z,97.60
2018-11-04T15:30:57.800Z,97.60
2018-11-04T15:33:32.472Z,97.60
2018-11-04T15:36:07.834Z,97.40
2018-11-04T15:38:43.166Z,97.70
2018-11-04T15:41:18.015Z,97.60
2018-11-04T15:43:53.251Z,97.80
2018-11-04T15:46:28.951Z,98.30
2018-11-04T15:49:04.558Z,98.20
2018-11-04T15:51:40.880Z,98.00
2018-11-04T15:54:15.688Z,97.90
2018-11-04T15:56:51.483Z,97.70
2018-11-04T15:59:27.411Z,97.60
2018-11-04T16:02:02.140Z,97.40
2018-11-04T16:04:44.547Z,97.30
2018-11-04T16:07:13.280Z,97.30
2018-11-04T16:09:48.723Z,97.40
2018-11-04T16:12:23.393Z,97.30
2018-11-04T16:14:58.305Z,97.40
2018-11-04T16:17:34.213Z,97.40
2018-11-04T16:22:56.065Z,97.30
2018-11-04T16:25:32.486Z,97.40
2018-11-04T16:28:09.103Z,97.40
2018-11-04T16:30:45.875Z,97.50
2018-11-04T16:33:23.198Z,97.60
2018-11-04T16:35:59.299Z,97.60
2018-11-04T16:38:35.871Z,97.50
2018-11-04T16:41:10.997Z,97.50
2018-11-04T16:43:46.623Z,97.40
2018-11-04T16:46:23.611Z,97.40
2018-11-04T16:49:00.929Z,97.40
2018-11-04T16:51:38.123Z,97.40
2018-11-04T16:54:13.516Z,97.40
2018-11-04T16:56:48.979Z,97.30
2018-11-04T16:59:27.193Z,97.40
2018-11-04T17:02:02.675Z,97.40
2018-11-04T17:04:37.489Z,97.40
2018-11-04T17:07:12.487Z,97.40
2018-11-04T17:09:48.356Z,97.40
2018-11-04T17:12:25.364Z,97.40
2018-11-04T17:18:06.265Z,97.50
2018-11-04T17:20:41.771Z,97.60
2018-11-04T17:23:21.116Z,97.60
2018-11-04T17:25:56.259Z,97.60
2018-11-04T17:28:32.631Z,97.50
2018-11-04T17:31:07.206Z,97.50
2018-11-04T18:07:49.314Z,97.50
2018-11-04T18:10:25.739Z,96.20
2018-11-04T18:13:03.116Z,97.00
2018-11-04T18:15:38.175Z,97.50
2018-11-04T18:18:14.938Z,98.10
2018-11-04T18:20:49.476Z,98.40
2018-11-04T18:23:25.821Z,98.70
2018-11-04T18:26:01.264Z,99.20
2018-11-04T18:28:37.653Z,99.00
2018-11-04T18:31:12.443Z,98.80
2018-11-04T18:33:47.947Z,98.60
2018-11-04T18:36:23.395Z,98.40
2018-11-04T18:38:58.017Z,98.30
2018-11-04T18:41:32.415Z,98.50
2018-11-04T18:44:08.296Z,98.40
2018-11-04T18:46:44.305Z,98.70
2018-11-04T18:49:20.675Z,98.70
2018-11-04T18:51:57.195Z,98.90
2018-11-04T18:54:39.317Z,98.80
2018-11-04T18:57:14.211Z,98.80
2018-11-04T18:59:49.210Z,98.70
2018-11-04T19:02:24.152Z,98.70
2018-11-04T19:04:59.387Z,98.90
2018-11-04T19:07:35.635Z,98.90
2018-11-04T19:10:13.764Z,98.60
2018-11-04T19:12:49.439Z,98.50
2018-11-04T19:15:23.869Z,98.50
2018-11-04T19:18:06.458Z,98.70
2018-11-04T19:20:40.969Z,98.60
2018-11-04T19:23:26.351Z,98.60
2018-11-04T19:26:02.871Z,98.50
2018-11-04T19:28:38.887Z,98.60
2018-11-04T19:31:13.369Z,98.50
2018-11-04T19:33:48.760Z,98.50
2018-11-04T19:36:23.322Z,98.50
2018-11-04T19:38:57.846Z,98.50
2018-11-04T19:41:33.940Z,98.50
2018-11-04T19:44:09.519Z,98.50
2018-11-04T19:46:45.984Z,98.40
2018-11-04T19:49:22.567Z,98.30
2018-11-04T19:51:57.330Z,98.30
2018-11-04T19:54:38.579Z,98.30
2018-11-04T19:57:13.344Z,98.30
2018-11-04T19:59:49.688Z,98.50
2018-11-04T20:02:25.524Z,98.50
2018-11-04T20:05:00.480Z,98.50
2018-11-04T20:13:20.608Z,98.40
2018-11-04T20:16:08.692Z,98.40
2018-11-04T20:18:48.617Z,99.20
2018-11-04T20:21:23.760Z,99.10
2018-11-04T20:24:13.205Z,99.10
2018-11-04T20:26:49.263Z,99.00
2018-11-04T20:29:25.217Z,99.10
2018-11-04T20:32:09.595Z,99.50
2018-11-04T20:34:45.256Z,99.50
2018-11-04T20:37:21.202Z,99.50
2018-11-04T20:40:02.041Z,99.50
2018-11-04T20:42:38.983Z,99.90
2018-11-04T20:45:16.908Z,99.90
2018-11-04T20:47:59.968Z,99.80
2018-11-04T20:50:44.190Z,99.70
2018-11-04T20:53:18.843Z,99.50
2018-11-04T20:58:42.249Z,99.60
2018-11-04T21:01:17.855Z,99.60
2018-11-04T21:03:53.470Z,99.60
2018-11-04T21:06:34.274Z,99.30
2018-11-04T21:09:13.060Z,99.30
2018-11-04T21:11:49.342Z,99.40
2018-11-04T21:14:24.981Z,99.70
2018-11-04T21:17:01.063Z,99.50
2018-11-04T21:19:37.109Z,99.40
2018-11-04T21:22:12.111Z,99.50
2018-11-04T21:24:48.710Z,99.50
2018-11-04T21:27:23.771Z,99.60
2018-11-04T21:30:00.815Z,99.90
2018-11-04T21:32:37.152Z,99.90
2018-11-04T21:35:11.795Z,99.90
2018-11-04T21:37:47.035Z,99.90
2018-11-04T21:40:22.044Z,99.80
2018-11-04T21:42:57.499Z,99.80
2018-11-04T21:45:32.336Z,99.90
2018-11-04T21:48:07.668Z,99.90
2018-11-04T21:50:43.053Z,99.90
2018-11-04T21:54:42.959Z,99.90
2018-11-04T21:57:18.740Z,99.90
2018-11-04T21:59:54.122Z,99.90
2018-11-04T22:02:29.284Z,99.90
2018-11-04T22:05:05.260Z,99.90
2018-11-04T22:07:42.241Z,99.90
2018-11-04T22:10:18.138Z,99.90
2018-11-04T22:20:01.976Z,99.90
2018-11-04T22:22:37.627Z,99.90
2018-11-04T22:25:12.915Z,99.90
2018-11-04T22:27:55.712Z,99.90
2018-11-04T22:30:31.015Z,99.90
2018-11-04T22:33:05.908Z,99.40
2018-11-04T22:35:41.352Z,99.60
2018-11-04T22:38:16.491Z,99.50
2018-11-04T22:40:51.475Z,99.70
2018-11-04T22:43:27.113Z,99.90
2018-11-04T22:46:02.056Z,99.90
2018-11-04T22:48:37.407Z,99.90
2018-11-04T22:51:12.124Z,99.80
2018-11-04T22:53:46.832Z,99.60
2018-11-04T22:56:21.772Z,99.40
2018-11-04T22:58:57.411Z,99.50
2018-11-04T23:01:33.117Z,99.90
2018-11-04T23:04:08.118Z,99.50
2018-11-04T23:08:08.482Z,99.70
2018-11-04T23:10:44.026Z,99.90
2018-11-04T23:13:19.216Z,99.90
2018-11-04T23:20:04.416Z,99.90
2018-11-04T23:22:39.628Z,99.90
2018-11-04T23:25:15.641Z,99.90
2018-11-04T23:27:56.288Z,99.90
2018-11-04T23:30:31.424Z,99.90
2018-11-04T23:35:59.972Z,99.90
2018-11-04T23:38:35.652Z,99.90
2018-11-04T23:41:10.474Z,99.90
2018-11-04T23:43:46.304Z,99.90
2018-11-04T23:46:24.467Z,99.90
2018-11-04T23:48:59.888Z,99.90
2018-11-04T23:51:34.827Z,99.90
2018-11-04T23:54:10.100Z,99.90
2018-11-04T23:56:44.904Z,99.90
2018-11-04T23:59:20.399Z,99.90
